Time;durP1;ratioP1;P1;durP2;ratioP2;P2;SDS_P1;SDS_P2;PMS_P1;PMS_P2;Temp;Humidity;BMP_temperature;BMP_pressure;BME280_temperature;BME280_humidity;BME280_pressure;Samples;Min_cycle;Max_cycle;Signal;HPM_P1;HPM_P2
2022/04/15 00:00:13;;;;;;;2.78;1.98;;;18.80;70.70;;;;;;5128128;27;45172;-80
2022/04/15 00:02:40;;;;;;;2.47;2.10;;;18.80;71.90;;;;;;5126861;27;45317;-80
2022/04/15 00:05:29;;;;;;;3.45;2.13;;;18.80;70.80;;;;;;5127298;27;46319;-80
2022/04/15 00:07:57;;;;;;;2.65;2.08;;;18.70;70.90;;;;;;5123486;27;45253;-79
2022/04/15 00:10:24;;;;;;;3.15;2.05;;;18.70;71.00;;;;;;5114679;27;45413;-80
2022/04/15 00:12:51;;;;;;;3.17;2.30;;;18.70;71.10;;;;;;5124229;27;45233;-79
2022/04/15 00:15:18;;;;;;;3.35;2.40;;;18.70;71.10;;;;;;5127054;27;46065;-79
2022/04/15 00:17:45;;;;;;;4.05;2.20;;;18.70;71.10;;;;;;5126096;27;45600;-80
2022/04/15 00:20:12;;;;;;;2.88;2.13;;;18.70;71.00;;;;;;5125589;27;45229;-80
2022/04/15 00:22:39;;;;;;;3.40;2.38;;;18.70;71.00;;;;;;5128281;27;45272;-80
2022/04/15 00:25:09;;;;;;;2.67;2.10;;;18.70;70.80;;;;;;5125919;27;46636;-80
2022/04/15 00:27:36;;;;;;;3.45;2.17;;;18.70;70.80;;;;;;5127948;27;45590;-80
2022/04/15 00:30:04;;;;;;;3.35;2.20;;;18.70;70.50;;;;;;5127673;27;45338;-79
2022/04/15 00:32:31;;;;;;;3.85;2.30;;;18.70;70.50;;;;;;5118152;27;45737;-80
2022/04/15 00:34:58;;;;;;;3.55;2.03;;;18.80;70.60;;;;;;5124149;27;48447;-80
2022/04/15 00:37:25;;;;;;;3.13;2.20;;;18.70;71.50;;;;;;5127383;27;45329;-79
2022/04/15 00:39:52;;;;;;;3.30;1.98;;;18.70;70.60;;;;;;5125907;27;45330;-80
2022/04/15 00:42:21;;;;;;;4.38;2.25;;;18.70;70.60;;;;;;5126456;27;45246;-80
2022/04/15 00:44:48;;;;;;;2.92;2.20;;;18.70;70.70;;;;;;5126356;27;45303;-79
2022/04/15 00:47:19;;;;;;;2.47;1.90;;;18.70;70.80;;;;;;5120843;27;45275;-79
2022/04/15 00:49:46;;;;;;;2.72;2.05;;;18.70;70.80;;;;;;5122240;27;45598;-80
2022/04/15 00:52:14;;;;;;;3.58;2.15;;;18.70;70.70;;;;;;5120581;27;45484;-79
2022/04/15 00:54:44;;;;;;;3.13;2.35;;;18.70;70.50;;;;;;5125194;27;46064;-80
2022/04/15 00:57:16;;;;;;;2.53;1.92;;;18.70;70.50;;;;;;5127932;27;45503;-79
2022/04/15 00:59:46;;;;;;;3.42;2.30;;;18.70;70.60;;;;;;5126949;27;45504;-80
2022/04/15 01:02:17;;;;;;;3.20;2.30;;;18.70;70.30;;;;;;5127287;27;45171;-79
2022/04/15 01:04:45;;;;;;;3.85;2.25;;;18.70;70.20;;;;;;5122529;27;46451;-80
2022/04/15 01:07:15;;;;;;;3.58;1.90;;;18.70;70.20;;;;;;5124939;27;45395;-79
2022/04/15 01:09:45;;;;;;;3.75;2.30;;;18.80;70.20;;;;;;5130708;27;45233;-79
2022/04/15 01:12:14;;;;;;;2.90;2.28;;;18.70;70.10;;;;;;5129782;27;45303;-79
2022/04/15 01:14:44;;;;;;;4.45;2.30;;;18.70;70.10;;;;;;5129951;27;45491;-79
2022/04/15 01:17:11;;;;;;;3.47;2.15;;;18.70;70.20;;;;;;5130038;27;45218;-79
2022/04/15 01:19:38;;;;;;;3.75;2.30;;;18.70;70.20;;;;;;5129049;27;45292;-79
2022/04/15 01:22:09;;;;;;;3.80;2.30;;;18.70;70.10;;;;;;5130478;27;45456;-79
2022/04/15 01:24:38;;;;;;;2.90;2.22;;;18.70;70.10;;;;;;5130362;27;47451;-79
2022/04/15 01:27:05;;;;;;;3.25;2.20;;;18.70;70.00;;;;;;5120748;27;45509;-79
2022/04/15 01:29:37;;;;;;;3.15;2.00;;;18.70;70.10;;;;;;5131164;27;45197;-79
2022/04/15 01:32:04;;;;;;;3.50;2.13;;;18.70;70.00;;;;;;5128316;27;45221;-80
2022/04/15 01:34:31;;;;;;;2.90;2.03;;;18.70;70.00;;;;;;5130485;27;46283;-79
2022/04/15 01:37:00;;;;;;;2.78;2.40;;;18.70;69.90;;;;;;5129754;27;45374;-79
2022/04/15 01:39:28;;;;;;;3.22;2.30;;;18.80;69.80;;;;;;5131110;27;45238;-79
2022/04/15 01:41:56;;;;;;;2.22;2.03;;;18.70;69.80;;;;;;5129063;27;45346;-79
2022/04/15 01:44:23;;;;;;;3.25;2.22;;;18.70;69.60;;;;;;5130730;27;47118;-79
2022/04/15 01:46:50;;;;;;;3.33;2.17;;;18.70;69.60;;;;;;5130399;27;45214;-79
2022/04/15 01:49:17;;;;;;;4.43;2.13;;;18.70;69.80;;;;;;5127564;27;45521;-79
2022/04/15 01:51:43;;;;;;;4.72;2.67;;;18.70;69.70;;;;;;5128982;27;45200;-79
2022/04/15 01:54:10;;;;;;;3.72;2.38;;;18.70;69.80;;;;;;5119789;27;45366;-79
2022/04/15 01:56:37;;;;;;;3.90;2.70;;;18.70;69.80;;;;;;5130472;27;45566;-79
2022/04/15 01:59:09;;;;;;;3.13;2.28;;;18.70;69.60;;;;;;5124783;27;45254;-80
2022/04/15 02:01:36;;;;;;;2.50;2.17;;;18.70;69.60;;;;;;5129714;27;45274;-79
2022/04/15 02:04:03;;;;;;;4.40;2.08;;;18.70;69.70;;;;;;5126087;27;47130;-80
2022/04/15 02:06:29;;;;;;;3.42;2.20;;;18.70;69.60;;;;;;5125942;27;45421;-79
2022/04/15 02:08:56;;;;;;;2.83;1.88;;;18.70;69.40;;;;;;5122611;27;45218;-79
2022/04/15 02:11:23;;;;;;;4.22;2.47;;;18.70;69.30;;;;;;5131320;27;45525;-79
2022/04/15 02:13:50;;;;;;;3.53;2.40;;;18.70;69.00;;;;;;5128663;27;45288;-79
2022/04/15 02:16:18;;;;;;;2.58;2.15;;;18.70;69.00;;;;;;5130945;27;45246;-79
2022/04/15 02:18:45;;;;;;;3.38;2.13;;;18.70;69.00;;;;;;5126038;27;45421;-80
2022/04/15 02:21:12;;;;;;;3.05;2.08;;;18.70;69.10;;;;;;5130720;27;45128;-79
2022/04/15 02:23:39;;;;;;;3.92;2.33;;;18.70;69.00;;;;;;5124143;27;47076;-79
2022/04/15 02:26:06;;;;;;;2.88;2.30;;;18.70;68.90;;;;;;5129466;27;46053;-79
2022/04/15 02:28:32;;;;;;;2.65;2.10;;;18.70;69.00;;;;;;5125967;27;45829;-80
2022/04/15 02:30:59;;;;;;;3.47;2.40;;;18.70;68.90;;;;;;5129884;27;45842;-79
2022/04/15 02:33:27;;;;;;;3.22;1.98;;;18.70;68.80;;;;;;5128000;27;46776;-79
2022/04/15 02:35:55;;;;;;;3.97;2.45;;;18.70;68.90;;;;;;5130996;27;45198;-79
2022/04/15 02:38:21;;;;;;;3.72;2.30;;;18.70;68.80;;;;;;5126947;27;45351;-79
2022/04/15 02:40:48;;;;;;;3.47;2.25;;;18.70;68.70;;;;;;5131015;27;45330;-80
2022/04/15 02:43:16;;;;;;;4.63;2.17;;;18.70;68.70;;;;;;5128636;27;47229;-79
2022/04/15 02:45:43;;;;;;;2.85;2.28;;;18.70;68.60;;;;;;5128816;27;45192;-79
2022/04/15 02:48:10;;;;;;;3.65;2.55;;;18.80;68.70;;;;;;5128698;27;45344;-80
2022/04/15 02:50:39;;;;;;;3.13;2.08;;;18.70;68.30;;;;;;5126912;27;45342;-79
2022/04/15 02:53:07;;;;;;;3.33;2.50;;;18.70;68.40;;;;;;5122494;27;46435;-81
2022/04/15 02:55:34;;;;;;;3.22;2.50;;;18.70;68.40;;;;;;5127471;27;45442;-81
2022/04/15 02:58:00;;;;;;;3.28;2.20;;;18.70;68.40;;;;;;5126150;27;45212;-81
2022/04/15 03:00:27;;;;;;;4.55;1.90;;;18.70;68.50;;;;;;5128887;27;45320;-79
2022/04/15 03:02:54;;;;;;;2.28;1.85;;;18.70;68.60;;;;;;5130082;27;47427;-81
2022/04/15 03:05:22;;;;;;;2.63;2.10;;;18.70;68.60;;;;;;5109784;27;45211;-82
2022/04/15 03:07:50;;;;;;;3.90;2.20;;;18.70;68.70;;;;;;5127514;27;45606;-81
2022/04/15 03:10:17;;;;;;;2.88;1.90;;;18.70;68.80;;;;;;5126187;27;45268;-81
2022/04/15 03:12:43;;;;;;;2.55;2.17;;;18.70;68.40;;;;;;5128189;27;47094;-81
2022/04/15 03:15:10;;;;;;;3.38;2.35;;;18.70;67.80;;;;;;5128017;27;45230;-82
2022/04/15 03:17:37;;;;;;;2.83;2.28;;;18.70;67.00;;;;;;5126835;27;45571;-82
2022/04/15 03:20:06;;;;;;;4.07;2.70;;;18.70;67.10;;;;;;5126909;27;45131;-82
2022/04/15 03:22:36;;;;;;;2.90;2.40;;;18.70;67.50;;;;;;5129799;27;46724;-83
2022/04/15 03:25:06;;;;;;;3.30;2.33;;;18.70;67.60;;;;;;5125805;27;45433;-82
2022/04/15 03:27:33;;;;;;;3.05;2.15;;;18.70;67.70;;;;;;5128601;27;45490;-83
2022/04/15 03:30:00;;;;;;;3.20;2.47;;;18.70;67.80;;;;;;5127516;27;45290;-82
2022/04/15 03:32:28;;;;;;;3.25;2.38;;;18.70;67.80;;;;;;5129693;27;45988;-82
2022/04/15 03:34:55;;;;;;;3.13;2.50;;;18.70;67.50;;;;;;5126460;27;45342;-81
2022/04/15 03:37:22;;;;;;;3.38;2.40;;;18.70;66.90;;;;;;5129559;27;45341;-80
2022/04/15 03:39:49;;;;;;;3.47;2.50;;;18.70;66.40;;;;;;5128674;27;45203;-80
2022/04/15 03:42:17;;;;;;;3.88;2.22;;;18.70;66.80;;;;;;5128496;27;46521;-80
2022/04/15 03:44:44;;;;;;;3.22;2.40;;;18.70;68.00;;;;;;5128045;27;46011;-80
2022/04/15 03:47:11;;;;;;;3.67;2.20;;;18.70;67.00;;;;;;5128954;27;45508;-80
2022/04/15 03:49:37;;;;;;;3.50;2.50;;;18.70;67.30;;;;;;5123467;27;45160;-80
2022/04/15 03:52:06;;;;;;;3.95;2.15;;;18.70;67.20;;;;;;5129076;27;47954;-80
2022/04/15 03:54:33;;;;;;;3.22;2.40;;;18.70;67.30;;;;;;5125290;27;45751;-80
2022/04/15 03:57:00;;;;;;;5.10;2.70;;;18.70;67.20;;;;;;5127949;27;45281;-81
2022/04/15 03:59:28;;;;;;;3.80;2.65;;;18.70;67.10;;;;;;5124760;27;45455;-81
2022/04/15 04:01:55;;;;;;;3.72;2.17;;;18.70;67.20;;;;;;5127713;27;45282;-81
2022/04/15 04:04:22;;;;;;;3.75;2.88;;;18.70;66.60;;;;;;5125480;27;45199;-81
2022/04/15 04:06:49;;;;;;;4.50;2.50;;;18.60;65.80;;;;;;5124495;27;45306;-82
2022/04/15 04:09:15;;;;;;;3.50;2.53;;;18.70;66.10;;;;;;5127578;27;45424;-82
2022/04/15 04:11:42;;;;;;;3.40;2.72;;;18.70;66.40;;;;;;5126249;27;47097;-82
2022/04/15 04:14:10;;;;;;;3.35;2.50;;;18.60;66.30;;;;;;5127199;27;45315;-81
2022/04/15 04:16:38;;;;;;;3.40;2.50;;;18.70;66.60;;;;;;5127276;27;45211;-82
2022/04/15 04:19:05;;;;;;;3.60;2.45;;;18.70;66.60;;;;;;5126311;27;45150;-82
2022/04/15 04:21:33;;;;;;;3.47;2.40;;;18.70;66.70;;;;;;5127964;27;45480;-82
2022/04/15 04:24:00;;;;;;;3.15;2.17;;;18.70;66.80;;;;;;5125891;27;45265;-81
2022/04/15 04:26:27;;;;;;;4.15;2.65;;;18.70;67.90;;;;;;5129235;27;45164;-81
2022/04/15 04:28:53;;;;;;;3.78;2.80;;;18.70;66.60;;;;;;5123806;27;45499;-81
2022/04/15 04:31:22;;;;;;;4.50;2.50;;;18.70;65.90;;;;;;5120660;27;45462;-82
2022/04/15 04:33:50;;;;;;;4.13;2.58;;;18.70;65.60;;;;;;5126294;27;45266;-82
2022/04/15 04:36:16;;;;;;;3.35;2.40;;;18.70;65.70;;;;;;5122102;27;45285;-82
2022/04/15 04:38:43;;;;;;;3.55;2.70;;;18.70;66.10;;;;;;5127289;27;45263;-82
2022/04/15 04:41:10;;;;;;;3.53;2.60;;;18.70;66.30;;;;;;5119605;27;45825;-82
2022/04/15 04:43:37;;;;;;;4.13;2.60;;;18.60;66.20;;;;;;5127562;27;45190;-82
2022/04/15 04:46:04;;;;;;;4.65;2.60;;;18.70;66.50;;;;;;5129261;27;45171;-82
2022/04/15 04:48:30;;;;;;;3.17;2.38;;;18.60;66.60;;;;;;5126762;27;45241;-82
2022/04/15 04:50:59;;;;;;;3.33;2.33;;;18.60;66.70;;;;;;5124982;27;46606;-82
2022/04/15 04:53:26;;;;;;;3.90;2.28;;;18.70;66.80;;;;;;5126658;27;45279;-82
2022/04/15 04:55:52;;;;;;;2.58;2.10;;;18.70;66.80;;;;;;5128195;27;45414;-81
2022/04/15 04:58:19;;;;;;;4.43;2.80;;;18.70;66.70;;;;;;5126013;27;45479;-81
2022/04/15 05:00:46;;;;;;;5.28;2.78;;;18.70;66.00;;;;;;5126920;27;46003;-81
2022/04/15 05:03:13;;;;;;;4.78;2.53;;;18.70;65.50;;;;;;5125281;27;45321;-81
2022/04/15 05:05:40;;;;;;;3.58;2.80;;;18.70;65.00;;;;;;5119121;27;45209;-82
2022/04/15 05:08:08;;;;;;;3.63;2.50;;;18.70;65.60;;;;;;5127996;27;45230;-82
2022/04/15 05:10:35;;;;;;;4.40;2.70;;;18.60;65.90;;;;;;5124719;27;47069;-81
2022/04/15 05:13:02;;;;;;;3.70;2.38;;;18.60;66.00;;;;;;5124546;27;45159;-82
2022/04/15 05:15:28;;;;;;;3.10;2.22;;;18.70;66.20;;;;;;5126770;27;45226;-81
2022/04/15 05:17:55;;;;;;;3.70;2.75;;;18.60;66.30;;;;;;5123212;27;45347;-81
2022/04/15 05:20:22;;;;;;;3.20;2.40;;;18.60;66.30;;;;;;5124748;27;46995;-81
2022/04/15 05:22:49;;;;;;;3.50;2.60;;;18.60;66.30;;;;;;5127205;27;45937;-81
2022/04/15 05:25:17;;;;;;;3.45;2.40;;;18.70;66.40;;;;;;5128280;27;45226;-81
2022/04/15 05:27:44;;;;;;;3.85;2.75;;;18.60;66.40;;;;;;5125164;27;45378;-81
2022/04/15 05:30:11;;;;;;;4.13;2.75;;;18.70;65.80;;;;;;5123242;27;46166;-80
2022/04/15 05:32:38;;;;;;;3.22;2.65;;;18.70;65.50;;;;;;5128005;27;45646;-80
2022/04/15 05:35:06;;;;;;;5.35;2.20;;;18.70;65.40;;;;;;5124556;27;45480;-79
2022/04/15 05:37:33;;;;;;;2.97;2.28;;;18.70;65.60;;;;;;5128115;27;45330;-79
2022/04/15 05:40:00;;;;;;;3.67;2.50;;;18.60;65.90;;;;;;5122864;27;46926;-79
2022/04/15 05:42:29;;;;;;;3.03;2.38;;;18.60;66.10;;;;;;5122418;27;45287;-80
2022/04/15 05:44:56;;;;;;;3.38;2.25;;;18.60;66.40;;;;;;5125755;27;45300;-80
2022/04/15 05:47:23;;;;;;;2.42;1.83;;;18.60;66.40;;;;;;5122955;27;45331;-80
2022/04/15 05:49:49;;;;;;;3.13;2.30;;;18.60;66.50;;;;;;5119159;27;47106;-80
2022/04/15 05:52:16;;;;;;;3.60;2.67;;;18.60;66.70;;;;;;5126625;27;45190;-80
2022/04/15 05:54:43;;;;;;;3.83;2.50;;;18.50;66.60;;;;;;5129329;27;45247;-80
2022/04/15 05:57:10;;;;;;;4.60;2.90;;;18.50;66.60;;;;;;5122268;27;45295;-81
2022/04/15 05:59:38;;;;;;;3.83;3.13;;;18.60;66.70;;;;;;5123519;27;46599;-81
2022/04/15 06:02:05;;;;;;;4.55;2.40;;;18.60;66.40;;;;;;5124082;27;45316;-80
2022/04/15 06:04:32;;;;;;;3.22;2.60;;;18.60;65.50;;;;;;5127419;27;45435;-79
2022/04/15 06:06:58;;;;;;;3.20;2.50;;;18.60;65.70;;;;;;5125314;27;45372;-79
2022/04/15 06:09:25;;;;;;;3.97;2.80;;;18.60;66.20;;;;;;5128809;27;46591;-80
2022/04/15 06:11:55;;;;;;;3.78;2.90;;;18.50;66.50;;;;;;5116404;27;45362;-80
2022/04/15 06:14:22;;;;;;;3.60;2.50;;;18.50;66.70;;;;;;5121589;27;45308;-80
2022/04/15 06:16:51;;;;;;;4.30;2.92;;;18.60;66.80;;;;;;5124429;27;45306;-80
2022/04/15 06:19:17;;;;;;;5.10;2.55;;;18.60;67.80;;;;;;5124440;27;48562;-80
2022/04/15 06:21:44;;;;;;;5.82;3.78;;;18.60;67.00;;;;;;5129126;27;45309;-80
2022/04/15 06:24:11;;;;;;;4.22;3.05;;;18.60;67.00;;;;;;5130006;27;45108;-80
2022/04/15 06:26:38;;;;;;;4.53;3.35;;;18.50;66.90;;;;;;5121898;27;45562;-79
2022/04/15 06:29:05;;;;;;;5.93;3.92;;;18.60;67.00;;;;;;5121166;27;47402;-80
2022/04/15 06:31:32;;;;;;;8.23;4.13;;;18.50;67.00;;;;;;5119650;27;45281;-80
2022/04/15 06:34:00;;;;;;;6.30;4.78;;;18.60;67.00;;;;;;5128030;27;45244;-80
2022/04/15 06:36:27;;;;;;;8.55;5.60;;;18.60;66.90;;;;;;5124435;27;45233;-80
2022/04/15 06:38:54;;;;;;;11.90;7.47;;;18.60;66.80;;;;;;5121059;27;45450;-81
2022/04/15 06:41:20;;;;;;;12.38;7.72;;;18.60;66.40;;;;;;5122314;27;45298;-80
2022/04/15 06:43:47;;;;;;;16.10;9.63;;;18.60;66.10;;;;;;5122217;27;45332;-80
2022/04/15 06:46:14;;;;;;;14.93;7.45;;;18.60;66.00;;;;;;5125040;27;45886;-82
2022/04/15 06:48:41;;;;;;;16.40;8.80;;;18.70;66.40;;;;;;5119022;27;45328;-80
2022/04/15 06:51:09;;;;;;;20.35;7.50;;;18.70;66.30;;;;;;5126187;27;45230;-79
2022/04/15 06:53:36;;;;;;;23.92;12.05;;;18.70;66.80;;;;;;5124918;27;45416;-79
2022/04/15 06:56:02;;;;;;;21.90;11.60;;;18.70;66.30;;;;;;5125300;27;45396;-79
2022/04/15 06:58:29;;;;;;;23.30;11.18;;;18.60;66.40;;;;;;5117725;27;46914;-79
2022/04/15 07:00:56;;;;;;;24.35;11.82;;;18.60;66.60;;;;;;5112319;27;45236;-79
2022/04/15 07:03:24;;;;;;;25.17;12.63;;;18.60;66.50;;;;;;5124029;27;45671;-79
2022/04/15 07:05:51;;;;;;;21.35;11.93;;;18.60;66.50;;;;;;5124397;27;45376;-79
2022/04/15 07:08:19;;;;;;;19.23;11.85;;;18.60;66.50;;;;;;5115870;27;46335;-79
2022/04/15 07:10:46;;;;;;;23.25;13.38;;;18.60;67.50;;;;;;5109150;27;46563;-79
2022/04/15 07:13:13;;;;;;;22.73;13.13;;;18.60;66.40;;;;;;5110411;27;45966;-79
2022/04/15 07:15:40;;;;;;;21.13;13.05;;;18.60;66.00;;;;;;5113803;27;46866;-79
2022/04/15 07:18:07;;;;;;;27.55;13.55;;;18.60;65.60;;;;;;5111008;27;46692;-79
2022/04/15 07:20:34;;;;;;;24.00;13.23;;;18.60;65.80;;;;;;5122254;27;45310;-79
2022/04/15 07:23:02;;;;;;;23.45;13.57;;;18.60;65.80;;;;;;5123061;27;45401;-79
2022/04/15 07:25:30;;;;;;;21.73;12.35;;;18.70;65.70;;;;;;5123475;27;45626;-79
2022/04/15 07:27:57;;;;;;;24.40;14.38;;;18.70;65.70;;;;;;5123148;27;46970;-79
2022/04/15 07:30:24;;;;;;;25.50;14.43;;;18.70;65.70;;;;;;5128066;27;45299;-79
2022/04/15 07:32:52;;;;;;;25.17;13.75;;;18.70;65.70;;;;;;5122341;27;47213;-79
2022/04/15 07:35:19;;;;;;;26.95;14.57;;;18.70;65.70;;;;;;5116606;27;45761;-79
2022/04/15 07:37:46;;;;;;;28.13;14.88;;;18.70;65.70;;;;;;5123915;27;46235;-78
2022/04/15 07:40:13;;;;;;;29.88;14.98;;;18.70;65.60;;;;;;5121177;27;45529;-79
2022/04/15 07:42:42;;;;;;;25.15;14.85;;;18.70;65.60;;;;;;5126266;27;45285;-78
2022/04/15 07:45:10;;;;;;;23.95;13.95;;;18.70;65.80;;;;;;5124102;27;45123;-79
2022/04/15 07:47:36;;;;;;;25.40;14.02;;;18.70;65.90;;;;;;5124867;27;46211;-79
2022/04/15 07:50:04;;;;;;;22.05;12.68;;;18.70;65.80;;;;;;5116200;27;45326;-79
2022/04/15 07:52:32;;;;;;;19.77;11.10;;;18.70;65.60;;;;;;5120084;27;45633;-79
2022/04/15 07:54:59;;;;;;;19.15;11.00;;;18.70;65.20;;;;;;5121054;27;47088;-80
2022/04/15 07:57:27;;;;;;;17.52;10.10;;;18.70;65.20;;;;;;5113340;27;47091;-79
2022/04/15 07:59:55;;;;;;;17.05;9.77;;;18.70;65.30;;;;;;5120454;27;45223;-79
2022/04/15 08:02:22;;;;;;;16.35;9.88;;;18.70;65.20;;;;;;5114532;27;45687;-79
2022/04/15 08:04:50;;;;;;;18.48;9.82;;;18.60;65.30;;;;;;5116267;27;45350;-79
2022/04/15 08:07:16;;;;;;;15.20;9.80;;;18.60;65.50;;;;;;5123317;27;46261;-79
2022/04/15 08:09:43;;;;;;;22.40;11.32;;;18.60;65.50;;;;;;5116887;27;45410;-79
2022/04/15 08:12:11;;;;;;;20.55;11.43;;;18.70;65.60;;;;;;5120618;27;45195;-79
2022/04/15 08:14:38;;;;;;;19.33;12.52;;;18.70;65.70;;;;;;5121598;27;45375;-79
2022/04/15 08:17:07;;;;;;;18.33;11.55;;;18.70;65.40;;;;;;5116034;27;45207;-79
2022/04/15 08:19:35;;;;;;;20.20;13.10;;;18.70;65.40;;;;;;5113853;27;45377;-79
2022/04/15 08:22:02;;;;;;;20.10;12.02;;;18.70;65.30;;;;;;5119455;27;45302;-79
2022/04/15 08:24:29;;;;;;;17.58;12.07;;;18.70;65.40;;;;;;5116928;27;45472;-79
2022/04/15 08:26:57;;;;;;;19.20;12.02;;;18.60;65.30;;;;;;5124393;27;45505;-78
2022/04/15 08:29:24;;;;;;;17.02;11.80;;;18.60;65.40;;;;;;5118394;27;45215;-78
2022/04/15 08:31:51;;;;;;;16.77;11.02;;;18.60;65.40;;;;;;5134411;27;45406;-79
2022/04/15 08:34:19;;;;;;;15.50;11.05;;;18.60;64.60;;;;;;5126015;27;45375;-79
2022/04/15 08:36:46;;;;;;;16.10;11.05;;;18.60;64.30;;;;;;5116273;27;45483;-80
2022/04/15 08:39:13;;;;;;;16.27;11.18;;;18.60;64.30;;;;;;5123015;27;45332;-79
2022/04/15 08:41:43;;;;;;;15.55;11.10;;;18.60;64.50;;;;;;5127604;27;45413;-80
2022/04/15 08:44:10;;;;;;;17.98;11.60;;;18.60;64.70;;;;;;5121626;27;45465;-79
2022/04/15 08:46:37;;;;;;;16.40;11.20;;;18.70;64.60;;;;;;5128545;27;45358;-80
2022/04/15 08:49:05;;;;;;;15.38;11.45;;;18.70;64.50;;;;;;5121520;27;45325;-80
2022/04/15 08:51:35;;;;;;;15.85;11.13;;;18.70;64.50;;;;;;5120592;27;45367;-80
2022/04/15 08:54:04;;;;;;;17.23;11.27;;;18.70;64.50;;;;;;5128061;27;45495;-80
2022/04/15 08:56:31;;;;;;;14.85;10.10;;;18.70;64.60;;;;;;5123976;27;45313;-79
2022/04/15 08:58:58;;;;;;;14.20;9.88;;;18.70;64.60;;;;;;5123141;27;45704;-79
2022/04/15 09:01:26;;;;;;;14.93;10.52;;;18.60;64.70;;;;;;5128306;27;45353;-80
2022/04/15 09:03:53;;;;;;;13.32;9.80;;;18.60;64.70;;;;;;5124095;27;45338;-80
2022/04/15 09:06:20;;;;;;;14.32;10.07;;;18.60;64.80;;;;;;5124296;27;46251;-79
2022/04/15 09:09:03;;;;;;;15.18;10.77;;;18.60;64.80;;;;;;5126914;27;45397;-79
2022/04/15 09:11:34;;;;;;;14.65;10.85;;;18.60;64.90;;;;;;5127913;27;45250;-80
2022/04/15 09:14:08;;;;;;;13.00;9.32;;;18.60;64.80;;;;;;5124844;27;45304;-79
2022/04/15 09:16:38;;;;;;;13.02;9.57;;;18.70;64.70;;;;;;5120590;27;46438;-79
2022/04/15 09:19:07;;;;;;;13.02;9.25;;;18.70;64.60;;;;;;5111657;27;46138;-79
2022/04/15 09:21:34;;;;;;;11.43;8.93;;;18.70;64.20;;;;;;5126162;27;45611;-78
2022/04/15 09:24:03;;;;;;;13.05;8.85;;;18.70;63.70;;;;;;5122334;27;45273;-79
2022/04/15 09:26:30;;;;;;;11.98;8.95;;;18.70;63.90;;;;;;5127838;27;47907;-79
2022/04/15 09:28:58;;;;;;;12.45;8.18;;;18.70;63.90;;;;;;5118913;27;45233;-79
2022/04/15 09:31:25;;;;;;;11.13;8.57;;;18.70;64.00;;;;;;5127456;27;45254;-78
2022/04/15 09:33:57;;;;;;;10.65;8.38;;;18.70;64.30;;;;;;5125884;27;46515;-78
2022/04/15 09:36:31;;;;;;;11.27;7.80;;;18.70;64.20;;;;;;5122947;27;46622;-78
2022/04/15 09:39:10;;;;;;;10.35;7.88;;;18.70;64.10;;;;;;5131420;27;45785;-79
2022/04/15 09:41:37;;;;;;;10.13;7.50;;;18.70;64.20;;;;;;5127392;27;45284;-78
2022/04/15 09:44:05;;;;;;;10.13;7.25;;;18.70;64.30;;;;;;5123254;27;45302;-78
2022/04/15 09:46:31;;;;;;;10.15;7.05;;;18.70;64.20;;;;;;5118677;27;46172;-78
2022/04/15 09:49:06;;;;;;;11.40;6.53;;;18.70;64.00;;;;;;5121378;27;45314;-79
2022/04/15 09:51:37;;;;;;;7.88;6.10;;;18.70;64.10;;;;;;5127512;27;45548;-79
2022/04/15 09:54:06;;;;;;;8.60;6.07;;;18.70;64.30;;;;;;5128722;27;45334;-79
2022/04/15 09:56:36;;;;;;;7.15;6.00;;;18.70;64.30;;;;;;5131175;27;48077;-79
2022/04/15 09:59:08;;;;;;;7.90;6.18;;;18.70;64.20;;;;;;5128162;27;45215;-78
2022/04/15 10:01:39;;;;;;;6.55;5.30;;;18.70;64.10;;;;;;5126723;27;45413;-78
2022/04/15 10:04:08;;;;;;;7.40;5.97;;;18.70;63.90;;;;;;5123517;27;45454;-78
2022/04/15 10:06:35;;;;;;;7.15;5.50;;;18.70;64.00;;;;;;5127210;27;47131;-78
2022/04/15 10:09:03;;;;;;;6.68;5.13;;;18.70;63.90;;;;;;5127517;27;45470;-79
2022/04/15 10:11:35;;;;;;;7.72;5.43;;;18.70;64.10;;;;;;5123665;27;45320;-78
2022/04/15 10:14:02;;;;;;;6.38;5.10;;;18.70;63.90;;;;;;5123999;27;46709;-78
2022/04/15 10:16:32;;;;;;;6.45;5.32;;;18.60;63.90;;;;;;5129479;27;45475;-78
2022/04/15 10:19:01;;;;;;;7.47;5.47;;;18.60;63.90;;;;;;5121627;27;45452;-78
2022/04/15 10:21:29;;;;;;;7.55;4.95;;;18.70;64.30;;;;;;5127029;27;45297;-78
2022/04/15 10:23:56;;;;;;;7.13;4.85;;;18.70;64.50;;;;;;5124240;27;45148;-78
2022/04/15 10:26:23;;;;;;;5.88;4.50;;;18.70;64.50;;;;;;5122451;27;47412;-78
2022/04/15 10:28:54;;;;;;;6.82;4.85;;;18.70;64.40;;;;;;5118773;27;45254;-78
2022/04/15 10:31:22;;;;;;;5.70;4.50;;;18.70;64.40;;;;;;5117222;27;45204;-79
2022/04/15 10:33:49;;;;;;;5.88;4.40;;;18.60;64.40;;;;;;5117326;27;45341;-78
2022/04/15 10:36:18;;;;;;;5.75;4.43;;;18.60;64.50;;;;;;5128723;27;45368;-78
2022/04/15 10:39:14;;;;;;;4.68;4.05;;;18.60;64.50;;;;;;5118367;27;45319;-78
2022/04/15 10:41:52;;;;;;;5.90;3.80;;;18.60;64.20;;;;;;5121218;27;45352;-78
2022/04/15 10:44:28;;;;;;;5.32;3.95;;;18.60;64.30;;;;;;5129111;27;45210;-78
2022/04/15 10:46:59;;;;;;;6.75;4.50;;;18.60;64.30;;;;;;5127322;27;46059;-79
2022/04/15 10:49:30;;;;;;;4.50;3.88;;;18.60;64.40;;;;;;5119621;27;45340;-78
2022/04/15 10:52:00;;;;;;;5.25;4.20;;;18.70;64.30;;;;;;5110014;27;45340;-78
2022/04/15 10:54:40;;;;;;;5.07;3.67;;;18.70;64.30;;;;;;5109810;27;45152;-78
2022/04/15 10:57:11;;;;;;;5.07;3.83;;;18.70;64.10;;;;;;5122951;27;45928;-78
2022/04/15 11:02:38;;;;;;;3.78;3.15;;;18.70;64.00;;;;;;5092401;27;45408;-79
2022/04/15 11:05:06;;;;;;;4.22;3.65;;;18.80;64.00;;;;;;5128126;27;45179;-78
2022/04/15 11:07:50;;;;;;;5.03;3.47;;;18.70;64.00;;;;;;5130607;27;47069;-78
2022/04/15 11:10:40;;;;;;;4.40;3.47;;;18.80;64.00;;;;;;5127601;27;45329;-78
2022/04/15 11:13:07;;;;;;;5.32;3.90;;;18.70;63.90;;;;;;5118563;27;45271;-79
2022/04/15 11:15:55;;;;;;;6.35;4.10;;;18.70;63.90;;;;;;5126704;27;45452;-79
2022/04/15 11:18:22;;;;;;;5.57;3.75;;;18.70;63.80;;;;;;5128369;27;47363;-78
2022/04/15 11:20:49;;;;;;;5.70;3.70;;;18.70;63.90;;;;;;5130157;27;45170;-78
2022/04/15 11:23:17;;;;;;;4.72;3.63;;;18.70;64.00;;;;;;5130674;27;45215;-78
2022/04/15 11:25:44;;;;;;;4.72;3.80;;;18.70;64.10;;;;;;5128788;27;45180;-78
2022/04/15 11:28:11;;;;;;;4.60;3.53;;;18.70;64.00;;;;;;5120544;27;46584;-78
2022/04/15 11:30:38;;;;;;;4.70;3.92;;;18.70;63.90;;;;;;5109593;27;45198;-78
2022/04/15 11:33:07;;;;;;;4.75;3.10;;;18.80;63.80;;;;;;5122332;27;45285;-78
2022/04/15 11:35:35;;;;;;;5.88;3.55;;;18.80;63.50;;;;;;5122877;27;45490;-78
2022/04/15 11:38:06;;;;;;;5.25;3.33;;;18.80;63.60;;;;;;5108859;27;46197;-78
2022/04/15 11:40:35;;;;;;;6.07;3.50;;;18.90;63.60;;;;;;5129122;27;45173;-78
2022/04/15 11:43:02;;;;;;;4.03;3.40;;;18.90;63.50;;;;;;5127393;27;45218;-78
2022/04/15 11:45:34;;;;;;;6.13;3.20;;;18.90;63.50;;;;;;5110271;27;45261;-78
2022/04/15 11:48:20;;;;;;;3.97;3.17;;;18.90;63.40;;;;;;5110671;27;47439;-78
2022/04/15 11:50:48;;;;;;;3.67;3.00;;;18.90;63.40;;;;;;5125609;27;45177;-78
2022/04/15 11:53:15;;;;;;;3.92;3.17;;;18.90;63.60;;;;;;5118077;27;45527;-78
2022/04/15 11:55:49;;;;;;;4.43;3.22;;;18.80;63.60;;;;;;5113630;27;45137;-78
2022/04/15 11:58:17;;;;;;;4.78;3.45;;;18.90;63.60;;;;;;5130317;27;46504;-79
2022/04/15 12:00:50;;;;;;;3.60;3.15;;;18.90;63.50;;;;;;5137562;27;45213;-78
2022/04/15 12:03:19;;;;;;;3.83;3.40;;;18.90;63.30;;;;;;5143825;27;45386;-78
2022/04/15 12:05:46;;;;;;;3.83;3.22;;;18.90;63.30;;;;;;5120113;27;45453;-78
2022/04/15 12:08:12;;;;;;;3.88;3.25;;;18.90;63.30;;;;;;5128824;27;46701;-78
2022/04/15 12:10:39;;;;;;;5.82;3.80;;;18.90;63.30;;;;;;5128920;27;45171;-78
2022/04/15 12:13:07;;;;;;;4.35;3.70;;;18.90;63.30;;;;;;5129536;27;45189;-79
2022/04/15 12:15:34;;;;;;;5.47;3.88;;;18.90;63.30;;;;;;5127925;27;45559;-79
2022/04/15 12:18:02;;;;;;;4.93;4.00;;;18.90;63.30;;;;;;5128117;27;46533;-78
2022/04/15 12:20:30;;;;;;;3.42;3.03;;;18.90;63.50;;;;;;5128611;27;45312;-79
2022/04/15 12:22:57;;;;;;;4.07;3.58;;;18.80;63.40;;;;;;5120507;27;45197;-78
2022/04/15 12:25:24;;;;;;;6.10;3.60;;;18.80;63.50;;;;;;5108814;27;45527;-78
2022/04/15 12:27:54;;;;;;;5.78;4.20;;;18.90;63.60;;;;;;5108896;27;45338;-79
2022/04/15 12:30:34;;;;;;;5.10;4.13;;;18.90;63.60;;;;;;5117733;27;45755;-78
2022/04/15 12:33:09;;;;;;;5.53;4.53;;;18.90;63.50;;;;;;5125725;27;45480;-78
2022/04/15 12:35:37;;;;;;;5.70;4.40;;;18.80;63.30;;;;;;5127676;27;45276;-78
2022/04/15 12:38:06;;;;;;;5.22;4.50;;;18.90;63.50;;;;;;5128917;27;45161;-78
2022/04/15 12:40:33;;;;;;;6.65;4.82;;;18.90;63.40;;;;;;5124785;27;45647;-78
2022/04/15 12:43:12;;;;;;;5.75;4.70;;;18.90;63.50;;;;;;5129140;27;45156;-78
2022/04/15 12:45:49;;;;;;;6.15;4.95;;;18.90;63.30;;;;;;5129137;27;45345;-78
2022/04/15 12:48:15;;;;;;;7.88;5.63;;;18.90;63.40;;;;;;5124111;27;45258;-79
2022/04/15 12:50:46;;;;;;;6.13;5.53;;;18.90;63.30;;;;;;5127172;27;45293;-78